PSHNJ SBCY-SLVR
Flight info
| Callsign | PSHNJ |
|---|---|
| Flight time | N/A |
| Altitude | 43000 |
| Route | UBKAB |
| Aircraft | HDJT/L-SABDGRWY/H |
Departure
| Time | 2026-05-04 18:33 |
|---|---|
| Airport | Várzea Grande–Marechal Rondon International Airport (SBCY) |
Arrival
| Time | N/A |
|---|---|
| Airport | Viru Viru International Airport (SLVR) |
| Time | Latitude | Longitude | Altitude | Speed | Heading |
|---|---|---|---|---|---|
| 2026-05-04 18:31 | -15.66248 | -56.11281 | 599 ft | 0 kts | 115° |
| 2026-05-04 18:31 | -15.66252 | -56.11262 | 598 ft | 9 kts | 94° |
| 2026-05-04 18:32 | -15.66227 | -56.11211 | 595 ft | 15 kts | 53° |
| 2026-05-04 18:32 | -15.66197 | -56.11187 | 595 ft | 4 kts | 327° |
| 2026-05-04 18:32 | -15.66025 | -56.11281 | 594 ft | 59 kts | 333° |
| 2026-05-04 18:32 | -15.65682 | -56.11463 | 596 ft | 107 kts | 334° |
| 2026-05-04 18:33 | -15.64910 | -56.11872 | 910 ft | 121 kts | 333° |
| 2026-05-04 18:33 | -15.64225 | -56.12256 | 1533 ft | 108 kts | 333° |
| 2026-05-04 18:33 | -15.63469 | -56.12686 | 1637 ft | 142 kts | 332° |
| 2026-05-04 18:33 | -15.62503 | -56.13241 | 1761 ft | 175 kts | 332° |
| 2026-05-04 18:34 | -15.61342 | -56.13903 | 1891 ft | 205 kts | 332° |
| 2026-05-04 18:34 | -15.60151 | -56.14736 | 2388 ft | 210 kts | 309° |
| 2026-05-04 18:34 | -15.59520 | -56.16072 | 3054 ft | 209 kts | 286° |
| 2026-05-04 18:34 | -15.59508 | -56.17645 | 3371 ft | 229 kts | 257° |
| 2026-05-04 18:35 | -15.60006 | -56.19226 | 3987 ft | 232 kts | 253° |
| 2026-05-04 18:35 | -15.60502 | -56.20825 | 4644 ft | 234 kts | 255° |
| 2026-05-04 18:35 | -15.60986 | -56.22440 | 5269 ft | 235 kts | 255° |
| 2026-05-04 18:35 | -15.61474 | -56.24066 | 5836 ft | 238 kts | 255° |
| 2026-05-04 18:36 | -15.61968 | -56.25714 | 6472 ft | 240 kts | 255° |
| 2026-05-04 18:36 | -15.62474 | -56.27380 | 7103 ft | 243 kts | 254° |
| 2026-05-04 18:36 | -15.62985 | -56.29059 | 7731 ft | 246 kts | 254° |
| 2026-05-04 18:36 | -15.63497 | -56.30758 | 8383 ft | 248 kts | 255° |
| 2026-05-04 18:37 | -15.64013 | -56.32473 | 9028 ft | 251 kts | 254° |
| 2026-05-04 18:37 | -15.64539 | -56.34208 | 9694 ft | 253 kts | 254° |
| 2026-05-04 18:37 | -15.65065 | -56.35956 | 10358 ft | 255 kts | 254° |
| 2026-05-04 18:37 | -15.65594 | -56.37718 | 11032 ft | 256 kts | 254° |
| 2026-05-04 18:38 | -15.66127 | -56.39488 | 11697 ft | 258 kts | 254° |
| 2026-05-04 18:38 | -15.66664 | -56.41270 | 12361 ft | 260 kts | 254° |
| 2026-05-04 18:38 | -15.67206 | -56.43069 | 12974 ft | 263 kts | 254° |
| 2026-05-04 18:38 | -15.67755 | -56.44890 | 13582 ft | 265 kts | 253° |
| 2026-05-04 18:39 | -15.68308 | -56.46728 | 14178 ft | 269 kts | 253° |
| 2026-05-04 18:39 | -15.68867 | -56.48588 | 14771 ft | 272 kts | 253° |
| 2026-05-04 18:39 | -15.69433 | -56.50468 | 15377 ft | 275 kts | 253° |
| 2026-05-04 18:39 | -15.70004 | -56.52369 | 15968 ft | 277 kts | 253° |
| 2026-05-04 18:40 | -15.70581 | -56.54292 | 16526 ft | 281 kts | 253° |
| 2026-05-04 18:40 | -15.71167 | -56.56240 | 17107 ft | 284 kts | 252° |
| 2026-05-04 18:40 | -15.71749 | -56.58178 | 17676 ft | 287 kts | 253° |
| 2026-05-04 18:40 | -15.72344 | -56.60160 | 18231 ft | 290 kts | 252° |
| 2026-05-04 18:41 | -15.72945 | -56.62165 | 18788 ft | 292 kts | 252° |
| 2026-05-04 18:41 | -15.73553 | -56.64189 | 19345 ft | 295 kts | 252° |
| 2026-05-04 18:41 | -15.74165 | -56.66231 | 19874 ft | 298 kts | 252° |
| 2026-05-04 18:41 | -15.74783 | -56.68293 | 20419 ft | 301 kts | 252° |
| 2026-05-04 18:42 | -15.75405 | -56.70372 | 20961 ft | 303 kts | 252° |
| 2026-05-04 18:42 | -15.76035 | -56.72470 | 21468 ft | 306 kts | 252° |
| 2026-05-04 18:42 | -15.76669 | -56.74593 | 21996 ft | 308 kts | 252° |
| 2026-05-04 18:42 | -15.77310 | -56.76729 | 22505 ft | 312 kts | 252° |
| 2026-05-04 18:43 | -15.77954 | -56.78885 | 23022 ft | 314 kts | 252° |
| 2026-05-04 18:43 | -15.78605 | -56.81063 | 23550 ft | 317 kts | 251° |
| 2026-05-04 18:43 | -15.79197 | -56.83273 | 23992 ft | 321 kts | 274° |
| 2026-05-04 18:43 | -15.79472 | -56.85546 | 24339 ft | 321 kts | 249° |
| 2026-05-04 18:44 | -15.80355 | -56.87680 | 24835 ft | 322 kts | 243° |
| 2026-05-04 18:44 | -15.80975 | -56.89078 | 25207 ft | 322 kts | 245° |
| 2026-05-04 18:44 | -15.81964 | -56.92015 | 25939 ft | 323 kts | 253° |
| 2026-05-04 18:44 | -15.82533 | -56.94266 | 26473 ft | 322 kts | 253° |
| 2026-05-04 18:45 | -15.83172 | -56.96492 | 26992 ft | 322 kts | 250° |
| 2026-05-04 18:45 | -15.83871 | -56.98702 | 27512 ft | 321 kts | 250° |
| 2026-05-04 18:45 | -15.84543 | -57.00911 | 28017 ft | 321 kts | 251° |
| 2026-05-04 18:45 | -15.85190 | -57.03129 | 28485 ft | 321 kts | 251° |
| 2026-05-04 18:46 | -15.85842 | -57.05344 | 28943 ft | 321 kts | 251° |
| 2026-05-04 18:46 | -15.86505 | -57.07557 | 29382 ft | 320 kts | 250° |
| 2026-05-04 18:46 | -15.87165 | -57.09766 | 29791 ft | 320 kts | 251° |
| 2026-05-04 18:46 | -15.87821 | -57.11976 | 30194 ft | 320 kts | 251° |
| 2026-05-04 18:47 | -15.88478 | -57.14185 | 30566 ft | 320 kts | 251° |
| 2026-05-04 18:47 | -15.89132 | -57.16391 | 30943 ft | 319 kts | 251° |
| 2026-05-04 18:47 | -15.89787 | -57.18592 | 31327 ft | 318 kts | 251° |
| 2026-05-04 18:47 | -15.90438 | -57.20785 | 31717 ft | 317 kts | 251° |
| 2026-05-04 18:48 | -15.91086 | -57.22971 | 32091 ft | 316 kts | 251° |
| 2026-05-04 18:48 | -15.91733 | -57.25151 | 32460 ft | 315 kts | 252° |
| 2026-05-04 18:48 | -15.92379 | -57.27329 | 32800 ft | 314 kts | 252° |
| 2026-05-04 18:48 | -15.93013 | -57.29468 | 33144 ft | 314 kts | 252° |
| 2026-05-04 18:49 | -15.93662 | -57.31659 | 33483 ft | 313 kts | 252° |
| 2026-05-04 18:49 | -15.94292 | -57.33786 | 33807 ft | 312 kts | 252° |
| 2026-05-04 18:49 | -15.94928 | -57.35934 | 34136 ft | 311 kts | 252° |
| 2026-05-04 18:49 | -15.95562 | -57.38079 | 34440 ft | 310 kts | 253° |
| 2026-05-04 18:50 | -15.96194 | -57.40216 | 34734 ft | 309 kts | 253° |
| 2026-05-04 18:50 | -15.96824 | -57.42345 | 35045 ft | 308 kts | 252° |
| 2026-05-04 18:50 | -15.97453 | -57.44470 | 35327 ft | 308 kts | 252° |
| 2026-05-04 18:50 | -15.98080 | -57.46594 | 35615 ft | 306 kts | 252° |
| 2026-05-04 18:51 | -15.98704 | -57.48707 | 35891 ft | 306 kts | 252° |
| 2026-05-04 18:51 | -15.99327 | -57.50816 | 36157 ft | 305 kts | 252° |
| 2026-05-04 18:51 | -15.99948 | -57.52921 | 36427 ft | 304 kts | 252° |
| 2026-05-04 18:51 | -16.00567 | -57.55023 | 36713 ft | 303 kts | 252° |
| 2026-05-04 18:52 | -16.01181 | -57.57104 | 37018 ft | 300 kts | 252° |
| 2026-05-04 18:52 | -16.01791 | -57.59170 | 37286 ft | 299 kts | 252° |
| 2026-05-04 18:52 | -16.02397 | -57.61227 | 37562 ft | 297 kts | 252° |
| 2026-05-04 18:52 | -16.02996 | -57.63268 | 37859 ft | 294 kts | 252° |
| 2026-05-04 18:53 | -16.03594 | -57.65297 | 38099 ft | 293 kts | 252° |
| 2026-05-04 18:53 | -16.04190 | -57.67316 | 38322 ft | 292 kts | 252° |
| 2026-05-04 18:53 | -16.04784 | -57.69335 | 38491 ft | 293 kts | 252° |
| 2026-05-04 18:53 | -16.05380 | -57.71363 | 38677 ft | 293 kts | 252° |
| 2026-05-04 18:54 | -16.05974 | -57.73385 | 38878 ft | 292 kts | 251° |
| 2026-05-04 18:54 | -16.06567 | -57.75402 | 39061 ft | 292 kts | 251° |
| 2026-05-04 18:54 | -16.07159 | -57.77419 | 39237 ft | 292 kts | 252° |
| 2026-05-04 18:54 | -16.07753 | -57.79439 | 39421 ft | 292 kts | 252° |
| 2026-05-04 18:55 | -16.08344 | -57.81452 | 39599 ft | 291 kts | 252° |
| 2026-05-04 18:55 | -16.09525 | -57.85480 | 39947 ft | 291 kts | 252° |
| 2026-05-04 18:55 | -16.10114 | -57.87489 | 40118 ft | 291 kts | 252° |
| 2026-05-04 18:56 | -16.10703 | -57.89498 | 40284 ft | 290 kts | 252° |
| 2026-05-04 18:56 | -16.11207 | -57.91221 | 40418 ft | 290 kts | 253° |
| 2026-05-04 18:56 | -16.11788 | -57.93204 | 40572 ft | 290 kts | 253° |
| 2026-05-04 18:56 | -16.12375 | -57.95209 | 40724 ft | 290 kts | 253° |
| 2026-05-04 18:57 | -16.12961 | -57.97210 | 40896 ft | 289 kts | 253° |
| 2026-05-04 18:57 | -16.13556 | -57.99244 | 40965 ft | 292 kts | 253° |
| 2026-05-04 18:57 | -16.14143 | -58.01252 | 40965 ft | 296 kts | 253° |
| 2026-05-04 18:57 | -16.14747 | -58.03319 | 40966 ft | 301 kts | 253° |
| 2026-05-04 18:58 | -16.15980 | -58.07541 | 40970 ft | 309 kts | 253° |
| 2026-05-04 18:58 | -16.17245 | -58.11872 | 40972 ft | 316 kts | 253° |
| 2026-05-04 18:59 | -16.18533 | -58.16289 | 40976 ft | 322 kts | 253° |
| 2026-05-04 18:59 | -16.19845 | -58.20790 | 40979 ft | 327 kts | 253° |
| 2026-05-04 19:00 | -16.21174 | -58.25356 | 40980 ft | 332 kts | 253° |
| 2026-05-04 19:00 | -16.22521 | -58.29984 | 40982 ft | 336 kts | 253° |
| 2026-05-04 19:01 | -16.23855 | -58.34659 | 40984 ft | 339 kts | 253° |
| 2026-05-04 19:01 | -16.25263 | -58.39356 | 40985 ft | 341 kts | 253° |
| 2026-05-04 19:02 | -16.26619 | -58.44108 | 40986 ft | 344 kts | 253° |
| 2026-05-04 19:02 | -16.28008 | -58.48877 | 40987 ft | 345 kts | 253° |
| 2026-05-04 19:03 | -16.29394 | -58.53675 | 40988 ft | 347 kts | 253° |
| 2026-05-04 19:03 | -16.30786 | -58.58485 | 40989 ft | 348 kts | 253° |
| 2026-05-04 19:04 | -16.32201 | -58.63306 | 40990 ft | 349 kts | 252° |
| 2026-05-04 19:04 | -16.33707 | -58.68113 | 40990 ft | 350 kts | 252° |
| 2026-05-04 19:05 | -16.35174 | -58.72940 | 40991 ft | 350 kts | 252° |
| 2026-05-04 19:05 | -16.36658 | -58.77775 | 40991 ft | 351 kts | 253° |
| 2026-05-04 19:06 | -16.38137 | -58.82615 | 40991 ft | 351 kts | 253° |
| 2026-05-04 19:06 | -16.39621 | -58.87466 | 40991 ft | 352 kts | 253° |
| 2026-05-04 19:07 | -16.41099 | -58.92321 | 40993 ft | 352 kts | 253° |
| 2026-05-04 19:07 | -16.42576 | -58.97146 | 40987 ft | 352 kts | 253° |
| 2026-05-04 19:08 | -16.44059 | -59.02016 | 40987 ft | 353 kts | 253° |
| 2026-05-04 19:08 | -16.45558 | -59.06880 | 40988 ft | 353 kts | 251° |
| 2026-05-04 19:09 | -16.47265 | -59.11677 | 40988 ft | 353 kts | 250° |
| 2026-05-04 19:09 | -16.48961 | -59.16482 | 40988 ft | 353 kts | 251° |
| 2026-05-04 19:10 | -16.50659 | -59.21286 | 40980 ft | 354 kts | 251° |
| 2026-05-04 19:10 | -16.52358 | -59.26102 | 40969 ft | 354 kts | 251° |
| 2026-05-04 19:11 | -16.54061 | -59.30929 | 40968 ft | 355 kts | 251° |
| 2026-05-04 19:11 | -16.55760 | -59.35754 | 40968 ft | 355 kts | 251° |
| 2026-05-04 19:12 | -16.58313 | -59.43005 | 40967 ft | 355 kts | 251° |
| 2026-05-04 19:13 | -16.60014 | -59.47839 | 40968 ft | 355 kts | 251° |
| 2026-05-04 19:13 | -16.61715 | -59.52681 | 40968 ft | 356 kts | 251° |
| 2026-05-04 19:14 | -16.63416 | -59.57525 | 40950 ft | 356 kts | 251° |
| 2026-05-04 19:14 | -16.65117 | -59.62376 | 40950 ft | 356 kts | 251° |
| 2026-05-04 19:15 | -16.66816 | -59.67224 | 40951 ft | 356 kts | 251° |
| 2026-05-04 19:15 | -16.68516 | -59.72077 | 40951 ft | 356 kts | 251° |
| 2026-05-04 19:16 | -16.70214 | -59.76929 | 40949 ft | 356 kts | 251° |
| 2026-05-04 19:16 | -16.71899 | -59.81751 | 40964 ft | 356 kts | 251° |
| 2026-05-04 19:17 | -16.73594 | -59.86602 | 40963 ft | 356 kts | 251° |
| 2026-05-04 19:17 | -16.75288 | -59.91455 | 40964 ft | 356 kts | 251° |
| 2026-05-04 19:18 | -16.76981 | -59.96313 | 40963 ft | 356 kts | 251° |
| 2026-05-04 19:18 | -16.78675 | -60.01173 | 40964 ft | 356 kts | 251° |
| 2026-05-04 19:19 | -16.80366 | -60.06032 | 40964 ft | 356 kts | 251° |
| 2026-05-04 19:19 | -16.82059 | -60.10899 | 40963 ft | 357 kts | 251° |
| 2026-05-04 19:20 | -16.83751 | -60.15766 | 40964 ft | 357 kts | 251° |
| 2026-05-04 19:20 | -16.85157 | -60.19816 | 40963 ft | 357 kts | 251° |
| 2026-05-04 19:21 | -16.86847 | -60.24686 | 40964 ft | 357 kts | 251° |
| 2026-05-04 19:21 | -16.88535 | -60.29555 | 40963 ft | 357 kts | 251° |
| 2026-05-04 19:22 | -16.90223 | -60.34428 | 40963 ft | 357 kts | 251° |
| 2026-05-04 19:22 | -16.91908 | -60.39298 | 40963 ft | 357 kts | 251° |
| 2026-05-04 19:23 | -16.93594 | -60.44174 | 40964 ft | 357 kts | 251° |
| 2026-05-04 19:23 | -16.95278 | -60.49046 | 40964 ft | 357 kts | 251° |
| 2026-05-04 19:24 | -16.96960 | -60.53919 | 40963 ft | 357 kts | 251° |
| 2026-05-04 19:24 | -16.98642 | -60.58797 | 40963 ft | 357 kts | 251° |
| 2026-05-04 19:25 | -17.00322 | -60.63672 | 40963 ft | 357 kts | 251° |
| 2026-05-04 19:25 | -17.02001 | -60.68548 | 40962 ft | 357 kts | 251° |
| 2026-05-04 19:26 | -17.03680 | -60.73429 | 40964 ft | 357 kts | 251° |
| 2026-05-04 19:26 | -17.05356 | -60.78307 | 40959 ft | 357 kts | 251° |
| 2026-05-04 19:27 | -17.07033 | -60.83190 | 40958 ft | 357 kts | 251° |
| 2026-05-04 19:27 | -17.08707 | -60.88069 | 40958 ft | 357 kts | 251° |
| 2026-05-04 19:28 | -17.10381 | -60.92952 | 40958 ft | 357 kts | 251° |
| 2026-05-04 19:28 | -17.12052 | -60.97832 | 40958 ft | 357 kts | 251° |
| 2026-05-04 19:29 | -17.13724 | -61.02717 | 40958 ft | 357 kts | 251° |
| 2026-05-04 19:29 | -17.15393 | -61.07598 | 40958 ft | 357 kts | 251° |
| 2026-05-04 19:30 | -17.17062 | -61.12483 | 40949 ft | 357 kts | 251° |
| 2026-05-04 19:30 | -17.17904 | -61.14951 | 40564 ft | 363 kts | 251° |
| 2026-05-04 19:30 | -17.18753 | -61.17442 | 40085 ft | 364 kts | 251° |
| 2026-05-04 19:30 | -17.19603 | -61.19932 | 39602 ft | 365 kts | 250° |
| 2026-05-04 19:31 | -17.20470 | -61.22475 | 39110 ft | 376 kts | 250° |
| 2026-05-04 19:31 | -17.21358 | -61.25079 | 38604 ft | 382 kts | 250° |
| 2026-05-04 19:31 | -17.22251 | -61.27701 | 38099 ft | 384 kts | 250° |
| 2026-05-04 19:31 | -17.23146 | -61.30334 | 37583 ft | 385 kts | 250° |
| 2026-05-04 19:32 | -17.24046 | -61.32979 | 37072 ft | 386 kts | 250° |
| 2026-05-04 19:32 | -17.24943 | -61.35615 | 36551 ft | 381 kts | 250° |
| 2026-05-04 19:32 | -17.25820 | -61.38194 | 36061 ft | 373 kts | 250° |
| 2026-05-04 19:32 | -17.26688 | -61.40750 | 35564 ft | 373 kts | 250° |
| 2026-05-04 19:33 | -17.27555 | -61.43304 | 35068 ft | 372 kts | 250° |
| 2026-05-04 19:33 | -17.28421 | -61.45856 | 34579 ft | 371 kts | 250° |
| 2026-05-04 19:33 | -17.29283 | -61.48396 | 34079 ft | 370 kts | 250° |
| 2026-05-04 19:33 | -17.30140 | -61.50925 | 33591 ft | 368 kts | 250° |
| 2026-05-04 19:34 | -17.30992 | -61.53435 | 33104 ft | 365 kts | 250° |
| 2026-05-04 19:34 | -17.31839 | -61.55932 | 32619 ft | 368 kts | 250° |
| 2026-05-04 19:34 | -17.32715 | -61.58520 | 32124 ft | 385 kts | 250° |
| 2026-05-04 19:34 | -17.33622 | -61.61203 | 31599 ft | 396 kts | 250° |
| 2026-05-04 19:35 | -17.34551 | -61.63946 | 31077 ft | 401 kts | 250° |
| 2026-05-04 19:35 | -17.35477 | -61.66685 | 30536 ft | 397 kts | 250° |
| 2026-05-04 19:35 | -17.36393 | -61.69397 | 30018 ft | 394 kts | 250° |
| 2026-05-04 19:35 | -17.37305 | -61.72097 | 29489 ft | 392 kts | 250° |
| 2026-05-04 19:36 | -17.38210 | -61.74777 | 28972 ft | 390 kts | 250° |
| 2026-05-04 19:36 | -17.39113 | -61.77449 | 28453 ft | 389 kts | 250° |
| 2026-05-04 19:36 | -17.40011 | -61.80114 | 27939 ft | 388 kts | 250° |
| 2026-05-04 19:36 | -17.40898 | -61.82746 | 27430 ft | 388 kts | 250° |
| 2026-05-04 19:37 | -17.41796 | -61.85407 | 26917 ft | 388 kts | 251° |
| 2026-05-04 19:37 | -17.42693 | -61.88071 | 26396 ft | 392 kts | 251° |
| 2026-05-04 19:37 | -17.43611 | -61.90801 | 25875 ft | 401 kts | 251° |
| 2026-05-04 19:37 | -17.44539 | -61.93556 | 25338 ft | 401 kts | 251° |
| 2026-05-04 19:38 | -17.45464 | -61.96305 | 24805 ft | 399 kts | 251° |
| 2026-05-04 19:38 | -17.46386 | -61.99047 | 24273 ft | 399 kts | 251° |
| 2026-05-04 19:38 | -17.47305 | -62.01781 | 23745 ft | 397 kts | 251° |
| 2026-05-04 19:38 | -17.48221 | -62.04504 | 23219 ft | 396 kts | 251° |
| 2026-05-04 19:39 | -17.49132 | -62.07218 | 22695 ft | 393 kts | 251° |
| 2026-05-04 19:39 | -17.50033 | -62.09910 | 22174 ft | 390 kts | 251° |
| 2026-05-04 19:39 | -17.50930 | -62.12587 | 21658 ft | 387 kts | 251° |
| 2026-05-04 19:39 | -17.51820 | -62.15240 | 21144 ft | 385 kts | 251° |
| 2026-05-04 19:40 | -17.52702 | -62.17873 | 20631 ft | 381 kts | 251° |
| 2026-05-04 19:40 | -17.53575 | -62.20485 | 20119 ft | 379 kts | 251° |
| 2026-05-04 19:40 | -17.54445 | -62.23083 | 19621 ft | 377 kts | 251° |
| 2026-05-04 19:40 | -17.55308 | -62.25663 | 19120 ft | 374 kts | 250° |
| 2026-05-04 19:41 | -17.56164 | -62.28226 | 18625 ft | 371 kts | 250° |
| 2026-05-04 19:41 | -17.57013 | -62.30769 | 18134 ft | 369 kts | 250° |
| 2026-05-04 19:41 | -17.57859 | -62.33297 | 17642 ft | 366 kts | 250° |
| 2026-05-04 19:41 | -17.58697 | -62.35806 | 17161 ft | 364 kts | 251° |
| 2026-05-04 19:42 | -17.59529 | -62.38300 | 16673 ft | 361 kts | 251° |
| 2026-05-04 19:42 | -17.60353 | -62.40771 | 16193 ft | 358 kts | 251° |
| 2026-05-04 19:42 | -17.61172 | -62.43228 | 15721 ft | 355 kts | 251° |
| 2026-05-04 19:42 | -17.61983 | -62.45661 | 15252 ft | 353 kts | 252° |
| 2026-05-04 19:43 | -17.62788 | -62.48079 | 14786 ft | 350 kts | 252° |
| 2026-05-04 19:43 | -17.63588 | -62.50480 | 14324 ft | 347 kts | 252° |
| 2026-05-04 19:43 | -17.64381 | -62.52860 | 13857 ft | 345 kts | 252° |
| 2026-05-04 19:43 | -17.65165 | -62.55223 | 13400 ft | 342 kts | 253° |
| 2026-05-04 19:44 | -17.65342 | -62.55756 | 13297 ft | 342 kts | 253° |
| 2026-05-04 19:44 | -17.66102 | -62.58044 | 12830 ft | 340 kts | 253° |
| 2026-05-04 19:44 | -17.66879 | -62.60375 | 12378 ft | 337 kts | 253° |
| 2026-05-04 19:44 | -17.67647 | -62.62685 | 11938 ft | 334 kts | 253° |
| 2026-05-04 19:45 | -17.68397 | -62.64948 | 11504 ft | 332 kts | 253° |
| 2026-05-04 19:45 | -17.69149 | -62.67215 | 11072 ft | 322 kts | 254° |
| 2026-05-04 19:45 | -17.69870 | -62.69380 | 10668 ft | 308 kts | 254° |
| 2026-05-04 19:45 | -17.70563 | -62.71470 | 10280 ft | 300 kts | 255° |
| 2026-05-04 19:46 | -17.71244 | -62.73531 | 9883 ft | 299 kts | 255° |
| 2026-05-04 19:46 | -17.71915 | -62.75586 | 9493 ft | 297 kts | 256° |
| 2026-05-04 19:46 | -17.72103 | -62.77653 | 9114 ft | 278 kts | 297° |
| 2026-05-04 19:46 | -17.71464 | -62.79545 | 8606 ft | 284 kts | 274° |
| 2026-05-04 19:47 | -17.71748 | -62.81219 | 8496 ft | 290 kts | 256° |
| 2026-05-04 19:47 | -17.72530 | -62.83046 | 8164 ft | 293 kts | 249° |
| 2026-05-04 19:48 | -17.73500 | -62.84929 | 7797 ft | 293 kts | 248° |
| 2026-05-04 19:48 | -17.74483 | -62.86791 | 7415 ft | 291 kts | 248° |
| 2026-05-04 19:48 | -17.75442 | -62.88645 | 7039 ft | 288 kts | 249° |
| 2026-05-04 19:48 | -17.76385 | -62.90495 | 6659 ft | 287 kts | 249° |
| 2026-05-04 19:49 | -17.77318 | -62.92333 | 6291 ft | 284 kts | 251° |
| 2026-05-04 19:49 | -17.77951 | -62.94256 | 5946 ft | 276 kts | 264° |
| 2026-05-04 19:49 | -17.78355 | -62.96223 | 5549 ft | 276 kts | 264° |
| 2026-05-04 19:49 | -17.78738 | -62.98180 | 5203 ft | 270 kts | 270° |
| 2026-05-04 19:50 | -17.78734 | -63.00124 | 4905 ft | 265 kts | 283° |
| 2026-05-04 19:50 | -17.78335 | -63.01990 | 4604 ft | 259 kts | 295° |
| 2026-05-04 19:50 | -17.77574 | -63.03683 | 4521 ft | 256 kts | 307° |
| 2026-05-04 19:50 | -17.76491 | -63.05140 | 4320 ft | 253 kts | 319° |
| 2026-05-04 19:51 | -17.75152 | -63.06329 | 3643 ft | 252 kts | 328° |
| 2026-05-04 19:51 | -17.73662 | -63.07327 | 3032 ft | 250 kts | 332° |
| 2026-05-04 19:51 | -17.72253 | -63.08262 | 2743 ft | 235 kts | 330° |
| 2026-05-04 19:51 | -17.70973 | -63.09148 | 2456 ft | 202 kts | 332° |
| 2026-05-04 19:52 | -17.69832 | -63.09916 | 2203 ft | 186 kts | 335° |
| 2026-05-04 19:52 | -17.68850 | -63.10583 | 1969 ft | 149 kts | 335° |
| 2026-05-04 19:52 | -17.68106 | -63.11091 | 1796 ft | 113 kts | 337° |
| 2026-05-04 19:52 | -17.67481 | -63.11497 | 1654 ft | 101 kts | 330° |
| 2026-05-04 19:53 | -17.67038 | -63.11812 | 1560 ft | 108 kts | 334° |
| 2026-05-04 19:53 | -17.66405 | -63.12259 | 1397 ft | 113 kts | 328° |
| 2026-05-04 19:53 | -17.65801 | -63.12680 | 1264 ft | 103 kts | 344° |
| 2026-05-04 19:53 | -17.65201 | -63.13048 | 1227 ft | 92 kts | 334° |
| 2026-05-04 19:54 | -17.64723 | -63.13332 | 1226 ft | 69 kts | 355° |